Time;durP1;ratioP1;P1;durP2;ratioP2;P2;SDS_P1;SDS_P2;PMS_P1;PMS_P2;Temp;Humidity;BMP_temperature;BMP_pressure;BME280_temperature;BME280_humidity;BME280_pressure;Samples;Min_cycle;Max_cycle;Signal;HPM_P1;HPM_P2
2022/11/21 14:39:45;;;;;;;0.20;0.10;;;16.40;99.90;;;;;;25645768;23;20431;-75
2022/11/21 14:50:01;;;;;;;0.20;0.10;;;16.30;99.90;;;;;;25648906;23;20387;-74
2022/11/21 15:00:16;;;;;;;0.20;0.10;;;16.10;99.90;;;;;;25655507;23;20368;-70
2022/11/21 15:10:39;;;;;;;0.20;0.10;;;16.30;99.90;;;;;;25660112;23;20418;-71
2022/11/21 15:20:49;;;;;;;0.20;0.10;;;16.40;99.90;;;;;;25633730;23;20371;-72
2022/11/21 15:31:14;;;;;;;0.20;0.10;;;16.00;99.90;;;;;;25658557;23;20431;-73
2022/11/21 15:41:30;;;;;;;0.20;0.10;;;15.90;99.90;;;;;;25656843;23;20363;-76
2022/11/21 15:51:36;;;;;;;0.20;0.10;;;15.70;99.90;;;;;;25654716;23;20363;-73
2022/11/21 16:02:01;;;;;;;0.20;0.10;;;15.50;99.90;;;;;;25651509;23;20367;-72
2022/11/21 16:12:05;;;;;;;0.20;0.10;;;15.10;99.90;;;;;;25654691;23;20387;-71
2022/11/21 16:22:10;;;;;;;0.20;0.10;;;14.90;99.90;;;;;;25653103;23;20364;-70
2022/11/21 16:32:14;;;;;;;0.20;0.10;;;15.00;99.90;;;;;;25660905;23;20384;-71
2022/11/21 16:42:20;;;;;;;0.20;0.10;;;14.50;99.90;;;;;;25776918;23;20358;-72
2022/11/21 16:52:25;;;;;;;0.20;0.10;;;14.60;99.90;;;;;;25776143;23;20362;-72
2022/11/21 17:02:30;;;;;;;0.20;0.10;;;14.70;99.90;;;;;;25750439;23;20373;-71
2022/11/21 17:12:37;;;;;;;0.20;0.10;;;14.40;99.90;;;;;;25775742;23;20401;-72
2022/11/21 17:22:42;;;;;;;0.20;0.10;;;14.20;99.90;;;;;;25752914;23;20454;-72
2022/11/21 17:32:46;;;;;;;0.20;0.10;;;14.20;99.90;;;;;;25776467;23;20373;-72
2022/11/21 17:42:51;;;;;;;0.20;0.00;;;14.50;99.90;;;;;;25777195;23;20828;-73
2022/11/21 17:52:57;;;;;;;0.20;0.10;;;14.60;99.90;;;;;;25747712;23;20386;-72
2022/11/21 18:03:02;;;;;;;0.20;0.10;;;14.50;99.90;;;;;;25775591;23;20371;-71
2022/11/21 18:13:06;;;;;;;0.20;0.10;;;14.40;99.90;;;;;;25775024;23;20385;-72
2022/11/21 18:23:11;;;;;;;0.20;0.10;;;14.40;99.90;;;;;;25775571;23;20362;-72
2022/11/21 18:33:15;;;;;;;0.20;0.10;;;14.50;99.90;;;;;;25774268;23;20377;-73
2022/11/21 18:43:22;;;;;;;0.20;0.10;;;14.40;99.90;;;;;;25755207;23;20366;-72
2022/11/21 18:53:26;;;;;;;0.20;0.10;;;14.00;99.90;;;;;;25783777;23;20393;-72
2022/11/21 19:03:32;;;;;;;0.20;0.10;;;13.90;99.90;;;;;;25757592;23;20441;-72
2022/11/21 19:13:36;;;;;;;0.20;0.10;;;14.20;99.90;;;;;;25754137;23;20385;-71
2022/11/21 19:23:42;;;;;;;0.20;0.10;;;15.00;99.90;;;;;;25730251;23;20396;-73
2022/11/21 19:33:46;;;;;;;0.20;0.10;;;15.10;99.90;;;;;;25755211;23;20385;-72
2022/11/21 19:43:53;;;;;;;0.20;0.10;;;14.80;99.90;;;;;;25754395;23;20386;-71
2022/11/21 19:53:57;;;;;;;0.20;0.10;;;14.60;99.90;;;;;;25780331;23;20374;-70
2022/11/21 20:04:04;;;;;;;0.20;0.00;;;14.70;99.90;;;;;;25750721;23;20369;-72
2022/11/21 20:14:08;;;;;;;0.20;0.10;;;14.40;99.90;;;;;;25727845;23;20370;-69
2022/11/21 20:24:14;;;;;;;0.20;0.10;;;14.30;99.90;;;;;;25779029;23;20369;-72
2022/11/21 20:34:18;;;;;;;0.20;0.10;;;14.10;99.90;;;;;;25777303;23;20401;-73
2022/11/21 20:44:23;;;;;;;0.20;0.10;;;13.90;99.90;;;;;;25753816;23;20362;-73
2022/11/21 20:54:47;;;;;;;0.20;0.10;;;13.90;99.90;;;;;;25754346;23;20415;-72
2022/11/21 21:04:52;;;;;;;0.20;0.00;;;13.80;99.90;;;;;;25751942;23;20366;-69
2022/11/21 21:14:55;;;;;;;0.20;0.10;;;13.80;99.90;;;;;;25777265;23;20385;-68
2022/11/21 21:25:01;;;;;;;0.20;0.07;;;13.70;99.90;;;;;;25776773;23;20381;-70
2022/11/21 21:35:05;;;;;;;0.20;0.10;;;13.10;99.90;;;;;;25752692;23;20382;-70
2022/11/21 21:45:11;;;;;;;0.20;0.00;;;12.90;99.90;;;;;;25776527;23;20369;-70
2022/11/21 21:55:15;;;;;;;0.20;0.10;;;13.60;99.90;;;;;;25750781;23;20377;-72
2022/11/21 22:05:20;;;;;;;0.20;0.10;;;13.40;99.90;;;;;;25748582;23;20366;-74
2022/11/21 22:15:28;;;;;;;0.20;0.10;;;13.10;99.90;;;;;;25777465;23;20381;-72
2022/11/21 22:25:33;;;;;;;0.20;0.00;;;12.80;99.90;;;;;;25749998;23;20369;-70
2022/11/21 22:35:37;;;;;;;0.20;0.10;;;12.50;99.90;;;;;;25751595;23;20366;-71
2022/11/21 22:45:44;;;;;;;0.20;0.10;;;12.30;99.90;;;;;;25778016;23;20385;-72
2022/11/21 22:55:56;;;;;;;0.20;0.10;;;12.30;99.90;;;;;;25748856;23;20389;-71
2022/11/21 23:06:02;;;;;;;0.20;0.00;;;12.30;99.90;;;;;;25749362;23;20378;-72
2022/11/21 23:16:07;;;;;;;0.20;0.10;;;12.40;99.90;;;;;;25755897;23;20397;-73
2022/11/21 23:26:13;;;;;;;0.20;0.00;;;12.50;99.90;;;;;;25785874;23;20365;-72
2022/11/21 23:36:17;;;;;;;0.20;0.00;;;12.50;99.90;;;;;;25762879;23;20377;-73
2022/11/21 23:46:23;;;;;;;0.20;0.00;;;12.30;99.90;;;;;;25786484;23;20376;-72
2022/11/21 23:56:26;;;;;;;0.20;0.10;;;12.40;99.90;;;;;;25762918;23;20378;-74
